sensor_id;sensor_type;location;lat;lon;timestamp;temperature;humidity
4487;DHT22;2256;48.740;9.106;2022-12-18T00:01:57;-7.80;99.90
4487;DHT22;2256;48.740;9.106;2022-12-18T00:04:25;-7.70;99.90
4487;DHT22;2256;48.740;9.106;2022-12-18T00:06:52;-7.60;99.90
4487;DHT22;2256;48.740;9.106;2022-12-18T00:09:19;-7.70;99.90
4487;DHT22;2256;48.740;9.106;2022-12-18T00:11:46;-7.70;99.90
4487;DHT22;2256;48.740;9.106;2022-12-18T00:14:15;-7.80;99.90
4487;DHT22;2256;48.740;9.106;2022-12-18T00:16:44;-7.80;99.90
4487;DHT22;2256;48.740;9.106;2022-12-18T00:19:11;-7.80;99.90
4487;DHT22;2256;48.740;9.106;2022-12-18T00:21:38;-7.70;99.90
4487;DHT22;2256;48.740;9.106;2022-12-18T00:24:05;-7.70;99.90
4487;DHT22;2256;48.740;9.106;2022-12-18T00:26:33;-7.80;99.90
4487;DHT22;2256;48.740;9.106;2022-12-18T00:29:02;-7.80;99.90
4487;DHT22;2256;48.740;9.106;2022-12-18T00:31:30;-7.80;99.90
4487;DHT22;2256;48.740;9.106;2022-12-18T00:33:57;-7.80;99.90
4487;DHT22;2256;48.740;9.106;2022-12-18T00:36:26;-7.80;99.90
4487;DHT22;2256;48.740;9.106;2022-12-18T00:38:54;-7.80;99.90
4487;DHT22;2256;48.740;9.106;2022-12-18T00:41:22;-7.80;99.90
4487;DHT22;2256;48.740;9.106;2022-12-18T00:44:09;-7.80;99.90
4487;DHT22;2256;48.740;9.106;2022-12-18T00:46:39;-8.00;99.90
4487;DHT22;2256;48.740;9.106;2022-12-18T00:49:05;-7.90;99.90
4487;DHT22;2256;48.740;9.106;2022-12-18T00:51:32;-8.00;99.90
4487;DHT22;2256;48.740;9.106;2022-12-18T00:53:59;-8.00;99.90
4487;DHT22;2256;48.740;9.106;2022-12-18T00:56:26;-8.00;99.90
4487;DHT22;2256;48.740;9.106;2022-12-18T00:58:52;-8.10;99.90
4487;DHT22;2256;48.740;9.106;2022-12-18T01:01:19;-8.10;99.90
4487;DHT22;2256;48.740;9.106;2022-12-18T01:03:48;-8.20;99.90
4487;DHT22;2256;48.740;9.106;2022-12-18T01:06:16;-8.20;99.90
4487;DHT22;2256;48.740;9.106;2022-12-18T01:08:43;-8.20;99.90
4487;DHT22;2256;48.740;9.106;2022-12-18T01:11:13;-8.20;99.90
4487;DHT22;2256;48.740;9.106;2022-12-18T01:13:40;-8.10;99.90
4487;DHT22;2256;48.740;9.106;2022-12-18T01:16:07;-8.10;99.90
4487;DHT22;2256;48.740;9.106;2022-12-18T01:18:34;-8.10;99.90
4487;DHT22;2256;48.740;9.106;2022-12-18T01:21:06;-8.10;99.90
4487;DHT22;2256;48.740;9.106;2022-12-18T01:23:32;-8.20;99.90
4487;DHT22;2256;48.740;9.106;2022-12-18T01:26:04;-8.10;99.90
4487;DHT22;2256;48.740;9.106;2022-12-18T01:28:32;-8.10;99.90
4487;DHT22;2256;48.740;9.106;2022-12-18T01:31:12;-8.20;99.90
4487;DHT22;2256;48.740;9.106;2022-12-18T01:33:40;-8.30;99.90
4487;DHT22;2256;48.740;9.106;2022-12-18T01:36:08;-8.30;99.90
4487;DHT22;2256;48.740;9.106;2022-12-18T01:38:40;-8.30;99.90
4487;DHT22;2256;48.740;9.106;2022-12-18T01:41:08;-8.30;99.90
4487;DHT22;2256;48.740;9.106;2022-12-18T01:43:48;-8.20;99.90
4487;DHT22;2256;48.740;9.106;2022-12-18T01:46:15;-8.20;99.90
4487;DHT22;2256;48.740;9.106;2022-12-18T01:48:42;-8.30;99.90
4487;DHT22;2256;48.740;9.106;2022-12-18T01:51:11;-8.40;99.90
4487;DHT22;2256;48.740;9.106;2022-12-18T01:53:40;-8.40;99.90
4487;DHT22;2256;48.740;9.106;2022-12-18T01:56:10;-8.30;99.90
4487;DHT22;2256;48.740;9.106;2022-12-18T01:58:45;-8.30;99.90
4487;DHT22;2256;48.740;9.106;2022-12-18T02:01:12;-8.30;99.90
4487;DHT22;2256;48.740;9.106;2022-12-18T02:03:41;-8.30;99.90
4487;DHT22;2256;48.740;9.106;2022-12-18T02:06:15;-8.30;99.90
4487;DHT22;2256;48.740;9.106;2022-12-18T02:08:50;-8.30;99.90
4487;DHT22;2256;48.740;9.106;2022-12-18T02:11:29;-8.30;99.90
4487;DHT22;2256;48.740;9.106;2022-12-18T02:14:04;-8.20;99.90
4487;DHT22;2256;48.740;9.106;2022-12-18T02:16:38;-8.10;99.90
4487;DHT22;2256;48.740;9.106;2022-12-18T02:19:12;-8.00;99.90
4487;DHT22;2256;48.740;9.106;2022-12-18T02:21:48;-8.00;99.90
4487;DHT22;2256;48.740;9.106;2022-12-18T02:24:27;-8.10;99.90
4487;DHT22;2256;48.740;9.106;2022-12-18T02:26:59;-8.00;99.90
4487;DHT22;2256;48.740;9.106;2022-12-18T02:29:30;-8.00;99.90
4487;DHT22;2256;48.740;9.106;2022-12-18T02:32:01;-8.20;99.90
4487;DHT22;2256;48.740;9.106;2022-12-18T02:34:32;-8.20;99.90
4487;DHT22;2256;48.740;9.106;2022-12-18T02:37:02;-8.20;99.90
4487;DHT22;2256;48.740;9.106;2022-12-18T02:39:31;-8.10;99.90
4487;DHT22;2256;48.740;9.106;2022-12-18T02:42:00;-8.10;99.90
4487;DHT22;2256;48.740;9.106;2022-12-18T02:44:34;-8.30;99.90
4487;DHT22;2256;48.740;9.106;2022-12-18T02:47:01;-8.30;99.90
4487;DHT22;2256;48.740;9.106;2022-12-18T02:49:35;-8.40;99.90
4487;DHT22;2256;48.740;9.106;2022-12-18T02:52:09;-8.50;99.90
4487;DHT22;2256;48.740;9.106;2022-12-18T02:54:51;-8.50;99.90
4487;DHT22;2256;48.740;9.106;2022-12-18T02:57:24;-8.50;99.90
4487;DHT22;2256;48.740;9.106;2022-12-18T02:59:58;-8.60;99.90
4487;DHT22;2256;48.740;9.106;2022-12-18T03:02:35;-8.60;99.90
4487;DHT22;2256;48.740;9.106;2022-12-18T03:05:09;-8.70;99.90
4487;DHT22;2256;48.740;9.106;2022-12-18T03:07:41;-8.80;99.90
4487;DHT22;2256;48.740;9.106;2022-12-18T03:10:11;-8.80;99.90
4487;DHT22;2256;48.740;9.106;2022-12-18T03:12:43;-8.60;99.90
4487;DHT22;2256;48.740;9.106;2022-12-18T03:15:14;-8.60;99.90
4487;DHT22;2256;48.740;9.106;2022-12-18T03:17:46;-8.70;99.90
4487;DHT22;2256;48.740;9.106;2022-12-18T03:20:18;-8.60;99.90
4487;DHT22;2256;48.740;9.106;2022-12-18T03:22:50;-8.50;99.90
4487;DHT22;2256;48.740;9.106;2022-12-18T03:25:18;-8.40;99.90
4487;DHT22;2256;48.740;9.106;2022-12-18T03:27:51;-8.30;99.90
4487;DHT22;2256;48.740;9.106;2022-12-18T03:30:19;-8.30;99.90
4487;DHT22;2256;48.740;9.106;2022-12-18T03:32:48;-8.40;99.90
4487;DHT22;2256;48.740;9.106;2022-12-18T03:35:20;-8.50;99.90
4487;DHT22;2256;48.740;9.106;2022-12-18T03:37:48;-8.50;99.90
4487;DHT22;2256;48.740;9.106;2022-12-18T03:40:15;-8.60;99.90
4487;DHT22;2256;48.740;9.106;2022-12-18T03:42:48;-8.70;99.90
4487;DHT22;2256;48.740;9.106;2022-12-18T03:45:22;-8.60;99.90
4487;DHT22;2256;48.740;9.106;2022-12-18T03:47:59;-8.60;99.90
4487;DHT22;2256;48.740;9.106;2022-12-18T03:50:34;-8.70;99.90
4487;DHT22;2256;48.740;9.106;2022-12-18T03:53:10;-8.80;99.90
4487;DHT22;2256;48.740;9.106;2022-12-18T03:55:40;-8.70;99.90
4487;DHT22;2256;48.740;9.106;2022-12-18T03:58:11;-8.70;99.90
4487;DHT22;2256;48.740;9.106;2022-12-18T04:00:39;-8.70;99.90
4487;DHT22;2256;48.740;9.106;2022-12-18T04:03:08;-8.90;99.90
4487;DHT22;2256;48.740;9.106;2022-12-18T04:05:36;-8.90;99.90
4487;DHT22;2256;48.740;9.106;2022-12-18T04:08:04;-9.00;99.90
4487;DHT22;2256;48.740;9.106;2022-12-18T04:10:31;-9.00;99.90
4487;DHT22;2256;48.740;9.106;2022-12-18T04:12:58;-9.20;99.90
4487;DHT22;2256;48.740;9.106;2022-12-18T04:15:27;-9.30;99.90
4487;DHT22;2256;48.740;9.106;2022-12-18T04:17:54;-9.30;99.90
4487;DHT22;2256;48.740;9.106;2022-12-18T04:20:21;-9.40;99.90
4487;DHT22;2256;48.740;9.106;2022-12-18T04:22:48;-9.40;99.90
4487;DHT22;2256;48.740;9.106;2022-12-18T04:25:14;-9.40;99.90
4487;DHT22;2256;48.740;9.106;2022-12-18T04:27:41;-9.40;99.90
4487;DHT22;2256;48.740;9.106;2022-12-18T04:30:10;-9.40;99.90
4487;DHT22;2256;48.740;9.106;2022-12-18T04:32:38;-9.40;99.90
4487;DHT22;2256;48.740;9.106;2022-12-18T04:35:05;-9.30;99.90
4487;DHT22;2256;48.740;9.106;2022-12-18T04:37:36;-9.30;99.90
4487;DHT22;2256;48.740;9.106;2022-12-18T04:40:03;-9.30;99.90
4487;DHT22;2256;48.740;9.106;2022-12-18T04:42:30;-9.30;99.90
4487;DHT22;2256;48.740;9.106;2022-12-18T04:44:57;-9.40;99.90
4487;DHT22;2256;48.740;9.106;2022-12-18T04:47:23;-9.40;99.90
4487;DHT22;2256;48.740;9.106;2022-12-18T04:49:52;-9.40;99.90
4487;DHT22;2256;48.740;9.106;2022-12-18T04:52:22;-9.40;99.90
4487;DHT22;2256;48.740;9.106;2022-12-18T04:54:49;-9.60;99.90
4487;DHT22;2256;48.740;9.106;2022-12-18T04:57:16;-9.50;99.90
4487;DHT22;2256;48.740;9.106;2022-12-18T04:59:43;-9.30;99.90
4487;DHT22;2256;48.740;9.106;2022-12-18T05:02:10;-9.40;99.90
4487;DHT22;2256;48.740;9.106;2022-12-18T05:04:37;-9.30;99.90
4487;DHT22;2256;48.740;9.106;2022-12-18T05:07:05;-9.30;99.90
4487;DHT22;2256;48.740;9.106;2022-12-18T05:09:32;-9.20;99.90
4487;DHT22;2256;48.740;9.106;2022-12-18T05:11:58;-9.10;99.90
4487;DHT22;2256;48.740;9.106;2022-12-18T05:14:25;-9.20;99.90
4487;DHT22;2256;48.740;9.106;2022-12-18T05:16:53;-9.20;99.90
4487;DHT22;2256;48.740;9.106;2022-12-18T05:19:19;-9.10;99.90
4487;DHT22;2256;48.740;9.106;2022-12-18T05:21:46;-9.10;99.90
4487;DHT22;2256;48.740;9.106;2022-12-18T05:24:14;-9.10;99.90
4487;DHT22;2256;48.740;9.106;2022-12-18T05:26:41;-9.10;99.90
4487;DHT22;2256;48.740;9.106;2022-12-18T05:29:08;-9.00;99.90
4487;DHT22;2256;48.740;9.106;2022-12-18T05:31:37;-9.00;99.90
4487;DHT22;2256;48.740;9.106;2022-12-18T05:34:04;-9.00;99.90
4487;DHT22;2256;48.740;9.106;2022-12-18T05:36:31;-9.10;99.90
4487;DHT22;2256;48.740;9.106;2022-12-18T05:38:58;-9.00;99.90
4487;DHT22;2256;48.740;9.106;2022-12-18T05:41:27;-9.10;99.90
4487;DHT22;2256;48.740;9.106;2022-12-18T05:43:54;-9.20;99.90
4487;DHT22;2256;48.740;9.106;2022-12-18T05:46:20;-9.10;99.90
4487;DHT22;2256;48.740;9.106;2022-12-18T05:48:47;-9.00;99.90
4487;DHT22;2256;48.740;9.106;2022-12-18T05:51:17;-9.00;99.90
4487;DHT22;2256;48.740;9.106;2022-12-18T05:53:45;-9.00;99.90
4487;DHT22;2256;48.740;9.106;2022-12-18T05:56:15;-9.00;99.90
4487;DHT22;2256;48.740;9.106;2022-12-18T05:58:43;-9.30;99.90
4487;DHT22;2256;48.740;9.106;2022-12-18T06:01:13;-9.40;99.90
4487;DHT22;2256;48.740;9.106;2022-12-18T06:03:40;-9.70;99.90
4487;DHT22;2256;48.740;9.106;2022-12-18T06:06:13;-9.60;99.90
4487;DHT22;2256;48.740;9.106;2022-12-18T06:08:40;-9.60;99.90
4487;DHT22;2256;48.740;9.106;2022-12-18T06:11:07;-9.70;99.90
4487;DHT22;2256;48.740;9.106;2022-12-18T06:13:33;-9.70;99.90
4487;DHT22;2256;48.740;9.106;2022-12-18T06:16:03;-9.70;99.90
4487;DHT22;2256;48.740;9.106;2022-12-18T06:18:30;-9.80;99.90
4487;DHT22;2256;48.740;9.106;2022-12-18T06:20:58;-10.00;99.90
4487;DHT22;2256;48.740;9.106;2022-12-18T06:23:25;-9.90;99.90
4487;DHT22;2256;48.740;9.106;2022-12-18T06:25:52;-9.90;99.90
4487;DHT22;2256;48.740;9.106;2022-12-18T06:28:19;-9.70;99.90
4487;DHT22;2256;48.740;9.106;2022-12-18T06:30:47;-9.90;99.90
4487;DHT22;2256;48.740;9.106;2022-12-18T06:33:17;-9.80;99.90
4487;DHT22;2256;48.740;9.106;2022-12-18T06:35:43;-9.90;99.90
4487;DHT22;2256;48.740;9.106;2022-12-18T06:38:10;-9.80;99.90
4487;DHT22;2256;48.740;9.106;2022-12-18T06:40:37;-9.80;99.90
4487;DHT22;2256;48.740;9.106;2022-12-18T06:43:05;-9.60;99.90
4487;DHT22;2256;48.740;9.106;2022-12-18T06:45:32;-9.60;99.90
4487;DHT22;2256;48.740;9.106;2022-12-18T06:47:59;-9.50;99.90
4487;DHT22;2256;48.740;9.106;2022-12-18T06:50:27;-9.40;99.90
4487;DHT22;2256;48.740;9.106;2022-12-18T06:52:54;-9.30;99.90
4487;DHT22;2256;48.740;9.106;2022-12-18T06:55:22;-9.20;99.90
4487;DHT22;2256;48.740;9.106;2022-12-18T06:57:48;-9.10;99.90
4487;DHT22;2256;48.740;9.106;2022-12-18T07:00:15;-8.90;99.90
4487;DHT22;2256;48.740;9.106;2022-12-18T07:02:42;-8.90;99.90
4487;DHT22;2256;48.740;9.106;2022-12-18T07:05:09;-8.80;99.90
4487;DHT22;2256;48.740;9.106;2022-12-18T07:07:37;-8.80;99.90
4487;DHT22;2256;48.740;9.106;2022-12-18T07:10:05;-8.70;99.90
4487;DHT22;2256;48.740;9.106;2022-12-18T07:12:32;-8.70;99.90
4487;DHT22;2256;48.740;9.106;2022-12-18T07:14:58;-8.70;99.90
4487;DHT22;2256;48.740;9.106;2022-12-18T07:17:26;-8.60;99.90
4487;DHT22;2256;48.740;9.106;2022-12-18T07:19:53;-8.70;99.90
4487;DHT22;2256;48.740;9.106;2022-12-18T07:22:20;-8.60;99.90
4487;DHT22;2256;48.740;9.106;2022-12-18T07:24:49;-8.40;99.90
4487;DHT22;2256;48.740;9.106;2022-12-18T07:27:16;-8.40;99.90
4487;DHT22;2256;48.740;9.106;2022-12-18T07:29:43;-8.30;99.90
4487;DHT22;2256;48.740;9.106;2022-12-18T07:32:10;-8.30;99.90
4487;DHT22;2256;48.740;9.106;2022-12-18T07:34:37;-8.20;99.90
4487;DHT22;2256;48.740;9.106;2022-12-18T07:37:03;-8.20;99.90
4487;DHT22;2256;48.740;9.106;2022-12-18T07:39:30;-8.00;99.90
4487;DHT22;2256;48.740;9.106;2022-12-18T07:41:58;-7.90;99.90
4487;DHT22;2256;48.740;9.106;2022-12-18T07:44:42;-7.70;99.90
4487;DHT22;2256;48.740;9.106;2022-12-18T07:47:09;-7.70;99.90
4487;DHT22;2256;48.740;9.106;2022-12-18T07:49:36;-7.60;99.90
4487;DHT22;2256;48.740;9.106;2022-12-18T07:52:03;-7.50;99.90
4487;DHT22;2256;48.740;9.106;2022-12-18T07:54:29;-7.40;99.90
4487;DHT22;2256;48.740;9.106;2022-12-18T07:56:56;-7.30;99.90
4487;DHT22;2256;48.740;9.106;2022-12-18T07:59:24;-7.20;99.90
4487;DHT22;2256;48.740;9.106;2022-12-18T08:01:51;-7.10;99.90
4487;DHT22;2256;48.740;9.106;2022-12-18T08:04:18;-7.20;99.90
4487;DHT22;2256;48.740;9.106;2022-12-18T08:06:45;-7.20;99.90
4487;DHT22;2256;48.740;9.106;2022-12-18T08:09:12;-7.10;99.90
4487;DHT22;2256;48.740;9.106;2022-12-18T08:11:39;-7.20;99.90
4487;DHT22;2256;48.740;9.106;2022-12-18T08:14:05;-7.00;99.90
4487;DHT22;2256;48.740;9.106;2022-12-18T08:16:34;-6.90;99.90
4487;DHT22;2256;48.740;9.106;2022-12-18T08:19:00;-6.90;99.90
4487;DHT22;2256;48.740;9.106;2022-12-18T08:21:29;-6.90;99.90
4487;DHT22;2256;48.740;9.106;2022-12-18T08:23:58;-6.90;99.90
4487;DHT22;2256;48.740;9.106;2022-12-18T08:26:27;-6.90;99.90
4487;DHT22;2256;48.740;9.106;2022-12-18T08:28:54;-6.80;99.90
4487;DHT22;2256;48.740;9.106;2022-12-18T08:31:22;-6.60;99.90
4487;DHT22;2256;48.740;9.106;2022-12-18T08:33:51;-6.40;99.90
4487;DHT22;2256;48.740;9.106;2022-12-18T08:36:19;-6.40;99.90
4487;DHT22;2256;48.740;9.106;2022-12-18T08:38:46;-6.20;99.90
4487;DHT22;2256;48.740;9.106;2022-12-18T08:41:16;-6.10;99.90
4487;DHT22;2256;48.740;9.106;2022-12-18T08:43:43;-5.80;99.90
4487;DHT22;2256;48.740;9.106;2022-12-18T08:46:32;-4.90;99.90
4487;DHT22;2256;48.740;9.106;2022-12-18T08:49:00;-3.90;99.90
4487;DHT22;2256;48.740;9.106;2022-12-18T08:51:27;-3.20;99.90
4487;DHT22;2256;48.740;9.106;2022-12-18T08:53:54;-2.60;99.90
4487;DHT22;2256;48.740;9.106;2022-12-18T08:56:21;-1.70;99.90
4487;DHT22;2256;48.740;9.106;2022-12-18T08:58:51;-0.80;99.90
4487;DHT22;2256;48.740;9.106;2022-12-18T09:01:18;0.30;99.90
4487;DHT22;2256;48.740;9.106;2022-12-18T09:03:45;1.60;99.90
4487;DHT22;2256;48.740;9.106;2022-12-18T09:06:17;2.60;99.90
4487;DHT22;2256;48.740;9.106;2022-12-18T09:08:44;3.20;99.90
4487;DHT22;2256;48.740;9.106;2022-12-18T09:11:21;3.80;99.90
4487;DHT22;2256;48.740;9.106;2022-12-18T09:13:49;4.00;99.50
4487;DHT22;2256;48.740;9.106;2022-12-18T09:16:16;4.10;96.80
4487;DHT22;2256;48.740;9.106;2022-12-18T09:18:43;3.80;95.80
4487;DHT22;2256;48.740;9.106;2022-12-18T09:21:11;3.20;95.70
4487;DHT22;2256;48.740;9.106;2022-12-18T09:23:39;2.30;96.10
4487;DHT22;2256;48.740;9.106;2022-12-18T09:26:06;1.40;96.70
4487;DHT22;2256;48.740;9.106;2022-12-18T09:28:33;0.50;97.50
4487;DHT22;2256;48.740;9.106;2022-12-18T09:31:04;-0.10;98.70
4487;DHT22;2256;48.740;9.106;2022-12-18T09:33:32;-0.70;99.60
4487;DHT22;2256;48.740;9.106;2022-12-18T09:36:01;-1.40;99.90
4487;DHT22;2256;48.740;9.106;2022-12-18T09:38:28;-1.70;99.90
4487;DHT22;2256;48.740;9.106;2022-12-18T09:40:59;-2.00;99.90
4487;DHT22;2256;48.740;9.106;2022-12-18T09:43:33;-2.20;99.90
4487;DHT22;2256;48.740;9.106;2022-12-18T09:46:03;-2.50;99.90
4487;DHT22;2256;48.740;9.106;2022-12-18T09:48:36;-2.60;99.90
4487;DHT22;2256;48.740;9.106;2022-12-18T09:51:11;-2.70;99.90
4487;DHT22;2256;48.740;9.106;2022-12-18T09:53:41;-2.80;99.90
4487;DHT22;2256;48.740;9.106;2022-12-18T09:56:16;-3.10;99.90
4487;DHT22;2256;48.740;9.106;2022-12-18T09:58:49;-3.00;99.90
4487;DHT22;2256;48.740;9.106;2022-12-18T10:01:21;-3.00;99.90
4487;DHT22;2256;48.740;9.106;2022-12-18T10:03:48;-3.00;99.90
4487;DHT22;2256;48.740;9.106;2022-12-18T10:06:22;-3.00;99.90
4487;DHT22;2256;48.740;9.106;2022-12-18T10:08:55;-2.90;99.90
4487;DHT22;2256;48.740;9.106;2022-12-18T10:11:37;-3.00;99.90
4487;DHT22;2256;48.740;9.106;2022-12-18T10:14:11;-2.90;99.90
4487;DHT22;2256;48.740;9.106;2022-12-18T10:16:47;-2.70;99.90
4487;DHT22;2256;48.740;9.106;2022-12-18T10:19:33;-2.80;99.90
4487;DHT22;2256;48.740;9.106;2022-12-18T10:22:11;-2.80;99.90
4487;DHT22;2256;48.740;9.106;2022-12-18T10:24:47;-2.90;99.90
4487;DHT22;2256;48.740;9.106;2022-12-18T10:27:22;-2.90;99.90
4487;DHT22;2256;48.740;9.106;2022-12-18T10:29:50;-2.90;99.90
4487;DHT22;2256;48.740;9.106;2022-12-18T10:32:18;-2.90;99.90
4487;DHT22;2256;48.740;9.106;2022-12-18T10:34:46;-2.90;99.90
4487;DHT22;2256;48.740;9.106;2022-12-18T10:37:17;-2.90;99.90
4487;DHT22;2256;48.740;9.106;2022-12-18T10:39:44;-2.80;99.90
4487;DHT22;2256;48.740;9.106;2022-12-18T10:42:17;-2.70;99.90
4487;DHT22;2256;48.740;9.106;2022-12-18T10:44:45;-2.60;99.90
4487;DHT22;2256;48.740;9.106;2022-12-18T10:47:14;-2.60;99.90
4487;DHT22;2256;48.740;9.106;2022-12-18T10:49:49;-2.40;99.90
4487;DHT22;2256;48.740;9.106;2022-12-18T10:52:18;-2.10;99.90
4487;DHT22;2256;48.740;9.106;2022-12-18T10:54:50;-1.80;99.90
4487;DHT22;2256;48.740;9.106;2022-12-18T10:57:30;-1.80;99.90
4487;DHT22;2256;48.740;9.106;2022-12-18T11:00:23;-1.80;99.90
4487;DHT22;2256;48.740;9.106;2022-12-18T11:02:51;-1.80;99.90
4487;DHT22;2256;48.740;9.106;2022-12-18T11:05:26;-1.80;99.90
4487;DHT22;2256;48.740;9.106;2022-12-18T11:07:56;-2.00;99.90
4487;DHT22;2256;48.740;9.106;2022-12-18T11:10:29;-2.00;99.90
4487;DHT22;2256;48.740;9.106;2022-12-18T11:13:12;-2.00;99.90
4487;DHT22;2256;48.740;9.106;2022-12-18T11:15:40;-1.80;99.90
4487;DHT22;2256;48.740;9.106;2022-12-18T11:18:16;-1.70;99.90
4487;DHT22;2256;48.740;9.106;2022-12-18T11:20:50;-1.60;99.90
4487;DHT22;2256;48.740;9.106;2022-12-18T11:23:19;-1.70;99.90
4487;DHT22;2256;48.740;9.106;2022-12-18T11:25:55;-1.70;99.90
4487;DHT22;2256;48.740;9.106;2022-12-18T11:28:35;-1.70;99.90
4487;DHT22;2256;48.740;9.106;2022-12-18T11:31:30;-1.70;99.90
4487;DHT22;2256;48.740;9.106;2022-12-18T11:34:03;-1.70;99.90
4487;DHT22;2256;48.740;9.106;2022-12-18T11:36:36;-1.80;99.90
4487;DHT22;2256;48.740;9.106;2022-12-18T11:39:12;-1.90;99.90
4487;DHT22;2256;48.740;9.106;2022-12-18T11:41:48;-2.00;99.90
4487;DHT22;2256;48.740;9.106;2022-12-18T11:44:37;-2.00;99.90
4487;DHT22;2256;48.740;9.106;2022-12-18T11:47:12;-1.90;99.90
4487;DHT22;2256;48.740;9.106;2022-12-18T11:49:41;-1.90;99.90
4487;DHT22;2256;48.740;9.106;2022-12-18T11:52:14;-1.80;99.90
4487;DHT22;2256;48.740;9.106;2022-12-18T11:54:42;-1.70;99.90
4487;DHT22;2256;48.740;9.106;2022-12-18T11:57:15;-1.50;99.90
4487;DHT22;2256;48.740;9.106;2022-12-18T11:59:53;-1.60;99.90
4487;DHT22;2256;48.740;9.106;2022-12-18T12:02:36;-1.60;99.90
4487;DHT22;2256;48.740;9.106;2022-12-18T12:05:20;-1.60;99.90
4487;DHT22;2256;48.740;9.106;2022-12-18T12:07:57;-1.50;99.90
4487;DHT22;2256;48.740;9.106;2022-12-18T12:10:36;-1.50;99.90
4487;DHT22;2256;48.740;9.106;2022-12-18T12:16:06;-1.70;99.90
4487;DHT22;2256;48.740;9.106;2022-12-18T12:18:48;-1.60;99.90
4487;DHT22;2256;48.740;9.106;2022-12-18T12:21:23;-1.60;99.90
4487;DHT22;2256;48.740;9.106;2022-12-18T12:23:58;-1.80;99.90
4487;DHT22;2256;48.740;9.106;2022-12-18T12:26:30;-1.90;99.90
4487;DHT22;2256;48.740;9.106;2022-12-18T12:29:13;-1.80;99.90
4487;DHT22;2256;48.740;9.106;2022-12-18T12:31:54;-1.90;99.90
4487;DHT22;2256;48.740;9.106;2022-12-18T12:34:27;-1.80;99.90
4487;DHT22;2256;48.740;9.106;2022-12-18T12:37:06;-1.90;99.90
4487;DHT22;2256;48.740;9.106;2022-12-18T12:39:40;-1.70;99.90
4487;DHT22;2256;48.740;9.106;2022-12-18T12:42:15;-1.60;99.90
4487;DHT22;2256;48.740;9.106;2022-12-18T12:45:05;-1.50;99.90
4487;DHT22;2256;48.740;9.106;2022-12-18T12:47:35;-1.50;99.90
4487;DHT22;2256;48.740;9.106;2022-12-18T12:50:12;-1.60;99.90
4487;DHT22;2256;48.740;9.106;2022-12-18T12:52:42;-1.50;99.90
4487;DHT22;2256;48.740;9.106;2022-12-18T12:55:16;-1.40;99.90
4487;DHT22;2256;48.740;9.106;2022-12-18T12:57:47;-1.30;99.90
4487;DHT22;2256;48.740;9.106;2022-12-18T13:00:18;-1.20;99.90
4487;DHT22;2256;48.740;9.106;2022-12-18T13:02:50;-1.10;99.90
4487;DHT22;2256;48.740;9.106;2022-12-18T13:05:23;-1.10;99.90
4487;DHT22;2256;48.740;9.106;2022-12-18T13:07:55;-1.10;99.90
4487;DHT22;2256;48.740;9.106;2022-12-18T13:10:30;-0.90;99.90
4487;DHT22;2256;48.740;9.106;2022-12-18T13:12:59;-0.90;99.90
4487;DHT22;2256;48.740;9.106;2022-12-18T13:15:31;-0.90;99.90
4487;DHT22;2256;48.740;9.106;2022-12-18T13:18:17;-0.70;99.90
4487;DHT22;2256;48.740;9.106;2022-12-18T13:20:48;-0.80;99.90
4487;DHT22;2256;48.740;9.106;2022-12-18T13:23:29;-0.90;99.90
4487;DHT22;2256;48.740;9.106;2022-12-18T13:25:59;-1.00;99.90
4487;DHT22;2256;48.740;9.106;2022-12-18T13:28:51;-1.10;99.90
4487;DHT22;2256;48.740;9.106;2022-12-18T13:34:33;-1.60;99.90
4487;DHT22;2256;48.740;9.106;2022-12-18T13:43:19;-1.90;99.90
4487;DHT22;2256;48.740;9.106;2022-12-18T13:45:50;-2.00;99.90
4487;DHT22;2256;48.740;9.106;2022-12-18T13:48:26;-2.00;99.90
4487;DHT22;2256;48.740;9.106;2022-12-18T13:50:58;-1.90;99.90
4487;DHT22;2256;48.740;9.106;2022-12-18T13:53:28;-1.90;99.90
4487;DHT22;2256;48.740;9.106;2022-12-18T13:55:56;-2.10;99.90
4487;DHT22;2256;48.740;9.106;2022-12-18T13:58:24;-2.20;99.90
4487;DHT22;2256;48.740;9.106;2022-12-18T14:00:51;-2.40;99.90
4487;DHT22;2256;48.740;9.106;2022-12-18T14:03:21;-2.50;99.90
4487;DHT22;2256;48.740;9.106;2022-12-18T14:05:54;-2.40;99.90
4487;DHT22;2256;48.740;9.106;2022-12-18T14:08:21;-2.40;99.90
4487;DHT22;2256;48.740;9.106;2022-12-18T14:10:50;-2.50;99.90
4487;DHT22;2256;48.740;9.106;2022-12-18T14:13:23;-2.40;99.90
4487;DHT22;2256;48.740;9.106;2022-12-18T14:15:52;-2.40;99.90
4487;DHT22;2256;48.740;9.106;2022-12-18T14:18:22;-2.50;99.90
4487;DHT22;2256;48.740;9.106;2022-12-18T14:20:51;-2.60;99.90
4487;DHT22;2256;48.740;9.106;2022-12-18T14:23:40;-2.80;99.90
4487;DHT22;2256;48.740;9.106;2022-12-18T14:26:21;-2.70;99.90
4487;DHT22;2256;48.740;9.106;2022-12-18T14:28:48;-2.80;99.90
4487;DHT22;2256;48.740;9.106;2022-12-18T14:31:21;-2.80;99.90
4487;DHT22;2256;48.740;9.106;2022-12-18T14:33:48;-2.90;99.90
4487;DHT22;2256;48.740;9.106;2022-12-18T14:36:17;-2.90;99.90
4487;DHT22;2256;48.740;9.106;2022-12-18T14:38:48;-2.90;99.90
4487;DHT22;2256;48.740;9.106;2022-12-18T14:41:16;-3.00;99.90
4487;DHT22;2256;48.740;9.106;2022-12-18T14:43:45;-3.10;99.90
4487;DHT22;2256;48.740;9.106;2022-12-18T14:46:29;-3.20;99.90
4487;DHT22;2256;48.740;9.106;2022-12-18T14:48:57;-3.30;99.90
4487;DHT22;2256;48.740;9.106;2022-12-18T14:51:25;-3.30;99.90
4487;DHT22;2256;48.740;9.106;2022-12-18T14:53:54;-3.40;99.90
4487;DHT22;2256;48.740;9.106;2022-12-18T14:56:23;-3.50;99.90
4487;DHT22;2256;48.740;9.106;2022-12-18T14:58:54;-3.60;99.90
4487;DHT22;2256;48.740;9.106;2022-12-18T15:01:24;-3.70;99.90
4487;DHT22;2256;48.740;9.106;2022-12-18T15:03:54;-3.70;99.90
4487;DHT22;2256;48.740;9.106;2022-12-18T15:06:33;-3.80;99.90
4487;DHT22;2256;48.740;9.106;2022-12-18T15:09:03;-3.80;99.90
4487;DHT22;2256;48.740;9.106;2022-12-18T15:11:45;-3.80;99.90
4487;DHT22;2256;48.740;9.106;2022-12-18T15:14:38;-3.90;99.90
4487;DHT22;2256;48.740;9.106;2022-12-18T15:17:12;-4.00;99.90
4487;DHT22;2256;48.740;9.106;2022-12-18T15:19:44;-4.00;99.90
4487;DHT22;2256;48.740;9.106;2022-12-18T15:22:24;-4.00;99.90
4487;DHT22;2256;48.740;9.106;2022-12-18T15:24:51;-4.10;99.90
4487;DHT22;2256;48.740;9.106;2022-12-18T15:27:23;-4.10;99.90
4487;DHT22;2256;48.740;9.106;2022-12-18T15:32:43;-4.10;99.90
4487;DHT22;2256;48.740;9.106;2022-12-18T15:35:16;-4.10;99.90
4487;DHT22;2256;48.740;9.106;2022-12-18T15:37:44;-4.10;99.90
4487;DHT22;2256;48.740;9.106;2022-12-18T15:40:15;-4.00;99.90
4487;DHT22;2256;48.740;9.106;2022-12-18T15:42:43;-3.90;99.90
4487;DHT22;2256;48.740;9.106;2022-12-18T15:45:28;-3.80;99.90
4487;DHT22;2256;48.740;9.106;2022-12-18T15:47:55;-3.80;99.90
4487;DHT22;2256;48.740;9.106;2022-12-18T15:50:24;-3.80;99.90
4487;DHT22;2256;48.740;9.106;2022-12-18T15:52:52;-4.00;99.90
4487;DHT22;2256;48.740;9.106;2022-12-18T15:55:21;-4.00;99.90
4487;DHT22;2256;48.740;9.106;2022-12-18T15:58:07;-4.10;99.90
4487;DHT22;2256;48.740;9.106;2022-12-18T16:00:35;-4.00;99.90
4487;DHT22;2256;48.740;9.106;2022-12-18T16:03:03;-4.10;99.90
4487;DHT22;2256;48.740;9.106;2022-12-18T16:05:31;-4.10;99.90
4487;DHT22;2256;48.740;9.106;2022-12-18T16:07:58;-4.00;99.90
4487;DHT22;2256;48.740;9.106;2022-12-18T16:10:26;-4.00;99.90
4487;DHT22;2256;48.740;9.106;2022-12-18T16:12:53;-4.00;99.90
4487;DHT22;2256;48.740;9.106;2022-12-18T16:15:20;-4.00;99.90
4487;DHT22;2256;48.740;9.106;2022-12-18T16:17:47;-3.80;99.90
4487;DHT22;2256;48.740;9.106;2022-12-18T16:20:15;-3.90;99.90
4487;DHT22;2256;48.740;9.106;2022-12-18T16:22:45;-3.90;99.90
4487;DHT22;2256;48.740;9.106;2022-12-18T16:25:18;-4.00;99.90
4487;DHT22;2256;48.740;9.106;2022-12-18T16:27:46;-3.90;99.90
4487;DHT22;2256;48.740;9.106;2022-12-18T16:30:14;-3.80;99.90
4487;DHT22;2256;48.740;9.106;2022-12-18T16:32:42;-3.80;99.90
4487;DHT22;2256;48.740;9.106;2022-12-18T16:35:10;-3.80;99.90
4487;DHT22;2256;48.740;9.106;2022-12-18T16:37:37;-3.60;99.90
4487;DHT22;2256;48.740;9.106;2022-12-18T16:40:07;-3.70;99.90